Time;durP1;ratioP1;P1;durP2;ratioP2;P2;SDS_P1;SDS_P2;PMS_P1;PMS_P2;Temp;Humidity;BMP_temperature;BMP_pressure;BME280_temperature;BME280_humidity;BME280_pressure;Samples;Min_cycle;Max_cycle;Signal;HPM_P1;HPM_P2
2023/12/22 00:01:16;;;;;;;13.75;1.40;;;;;;;1.42;56.10;99286.59;5019860;28;20253;-81
2023/12/22 00:03:49;;;;;;;15.43;1.85;;;;;;;0.61;58.56;99294.66;5005379;28;20049;-81
2023/12/22 00:06:15;;;;;;;6.05;1.20;;;;;;;0.94;58.30;99299.81;5018603;28;20089;-80
2023/12/22 00:08:41;;;;;;;12.20;1.52;;;;;;;0.98;57.53;99309.16;5000631;28;20068;-81
2023/12/22 00:11:07;;;;;;;15.05;2.17;;;;;;;0.81;58.59;99303.56;5006656;28;20037;-81
2023/12/22 00:13:33;;;;;;;9.55;0.73;;;;;;;0.60;59.49;99299.81;4979549;28;20108;-81
2023/12/22 00:16:00;;;;;;;7.03;0.70;;;;;;;0.56;60.24;99283.59;5006653;28;20034;-80
2023/12/22 00:18:26;;;;;;;7.35;0.20;;;;;;;0.45;59.10;99285.59;5008071;28;20061;-81
2023/12/22 00:20:52;;;;;;;3.22;0.60;;;;;;;0.41;58.42;99289.97;5006423;28;20812;-81
2023/12/22 00:23:17;;;;;;;10.18;0.93;;;;;;;0.69;57.83;99285.00;5023810;28;20045;-81
2023/12/22 00:25:43;;;;;;;3.92;0.65;;;;;;;0.70;57.23;99290.97;5025893;28;20514;-81
2023/12/22 00:28:08;;;;;;;3.55;0.20;;;;;;;0.56;57.14;99304.19;5021005;28;20025;-80
2023/12/22 00:30:34;;;;;;;13.48;0.40;;;;;;;0.76;56.39;99306.28;5023435;28;20390;-81
2023/12/22 00:32:59;;;;;;;5.20;0.30;;;;;;;0.42;57.07;99312.22;5024556;28;20817;-80
2023/12/22 00:35:25;;;;;;;4.97;0.40;;;;;;;0.87;55.97;99300.88;5007376;28;20026;-81
2023/12/22 00:37:50;;;;;;;7.75;1.00;;;;;;;0.61;57.76;99316.91;5025359;28;20591;-80
2023/12/22 00:40:16;;;;;;;6.65;0.40;;;;;;;0.15;58.57;99344.53;5024446;28;20690;-80
2023/12/22 00:42:42;;;;;;;4.65;0.60;;;;;;;0.36;57.24;99301.22;5010800;28;20040;-80
2023/12/22 00:45:08;;;;;;;9.95;0.38;;;;;;;0.42;55.98;99290.81;5009833;28;20521;-81
2023/12/22 00:47:35;;;;;;;4.65;0.43;;;;;;;0.54;54.60;99294.81;5006190;28;20375;-80
2023/12/22 00:50:02;;;;;;;6.80;0.65;;;;;;;0.15;54.73;99300.84;5004585;28;20045;-80
2023/12/22 00:52:27;;;;;;;2.17;0.25;;;;;;;0.71;53.43;99302.97;5001741;28;20034;-80
2023/12/22 00:54:53;;;;;;;8.20;0.95;;;;;;;0.10;54.82;99292.41;5021664;28;20065;-80
2023/12/22 00:57:19;;;;;;;7.43;0.40;;;;;;;0.33;54.49;99291.03;4999418;28;20588;-80
2023/12/22 00:59:47;;;;;;;3.10;0.60;;;;;;;0.46;54.61;99295.84;5023053;28;20107;-80
2023/12/22 01:02:17;;;;;;;13.23;1.05;;;;;;;0.75;54.57;99298.56;5003402;28;20068;-80
2023/12/22 01:04:43;;;;;;;7.00;0.90;;;;;;;0.43;55.79;99262.47;5002050;28;20057;-82
2023/12/22 01:07:08;;;;;;;11.52;1.15;;;;;;;0.89;55.53;99296.53;5018999;28;20026;-81
2023/12/22 01:09:36;;;;;;;4.78;0.50;;;;;;;0.51;53.51;99300.03;5007797;28;20061;-80
2023/12/22 01:12:06;;;;;;;1.65;0.55;;;;;;;0.72;51.39;99319.25;5007165;28;20030;-79
2023/12/22 01:14:31;;;;;;;1.17;0.00;;;;;;;0.72;51.21;99309.78;5020233;28;20038;-80
2023/12/22 01:16:59;;;;;;;4.45;0.63;;;;;;;0.74;51.46;99327.75;5006972;28;20067;-80
2023/12/22 01:19:24;;;;;;;4.10;0.10;;;;;;;0.48;53.26;99342.09;5020974;28;20057;-79
2023/12/22 01:21:50;;;;;;;2.00;0.30;;;;;;;0.20;55.81;99327.28;5002347;28;20037;-80
2023/12/22 01:24:15;;;;;;;2.63;0.20;;;;;;;0.67;55.96;99324.50;5006629;28;20252;-80
2023/12/22 01:26:44;;;;;;;10.02;0.77;;;;;;;0.41;56.96;99318.25;5007601;28;20044;-79
2023/12/22 01:29:10;;;;;;;7.10;0.60;;;;;;;0.31;58.52;99339.06;5014475;28;20088;-80
2023/12/22 01:31:35;;;;;;;13.25;0.88;;;;;;;0.86;57.38;99337.78;5005378;28;20038;-80
2023/12/22 01:34:01;;;;;;;14.55;0.82;;;;;;;1.09;56.39;99345.75;5019899;28;20045;-80
2023/12/22 01:36:29;;;;;;;7.95;0.55;;;;;;;0.73;54.27;99362.09;5034328;28;20045;-80
2023/12/22 01:38:55;;;;;;;3.60;0.28;;;;;;;0.46;52.83;99397.84;5022312;28;20042;-80
2023/12/22 01:41:20;;;;;;;4.32;0.35;;;;;;;0.77;54.22;99404.84;5019598;28;20029;-81
2023/12/22 01:43:46;;;;;;;6.22;0.65;;;;;;;-0.25;57.73;99349.63;5006448;28;20046;-80
2023/12/22 01:46:12;;;;;;;0.88;0.10;;;;;;;0.13;57.48;99359.13;5003970;28;20040;-79
2023/12/22 01:48:39;;;;;;;2.72;0.10;;;;;;;-0.28;59.04;99349.69;5006498;28;20042;-79
2023/12/22 01:51:06;;;;;;;1.30;0.08;;;;;;;-0.11;59.12;99341.66;5020590;28;20044;-79
2023/12/22 01:53:33;;;;;;;6.40;0.20;;;;;;;-0.10;59.35;99358.75;5001365;28;20034;-78
2023/12/22 01:56:01;;;;;;;8.10;0.50;;;;;;;-0.42;60.23;99367.91;5020850;28;20045;-79
2023/12/22 01:58:28;;;;;;;3.47;0.75;;;;;;;-0.02;59.12;99365.41;5022670;28;20636;-79
2023/12/22 02:00:55;;;;;;;9.63;0.80;;;;;;;-0.13;59.98;99355.34;5015597;28;20045;-79
2023/12/22 02:03:21;;;;;;;8.25;0.45;;;;;;;0.28;59.18;99351.09;5023052;28;20041;-79
2023/12/22 02:05:47;;;;;;;18.85;1.65;;;;;;;-0.08;59.88;99347.59;5003256;28;20040;-79
2023/12/22 02:08:13;;;;;;;20.55;1.50;;;;;;;0.44;58.47;99345.59;5005492;28;20273;-79
2023/12/22 02:10:39;;;;;;;14.98;2.13;;;;;;;0.50;58.30;99358.31;5009133;28;20064;-79
2023/12/22 02:13:09;;;;;;;10.20;1.33;;;;;;;-0.02;59.92;99347.44;5006033;28;20124;-79
2023/12/22 02:15:35;;;;;;;17.98;1.77;;;;;;;0.57;58.33;99348.72;5003401;28;20076;-79
2023/12/22 02:18:09;;;;;;;17.92;2.03;;;;;;;0.75;57.69;99356.03;5022497;28;20474;-79
2023/12/22 02:20:34;;;;;;;10.38;1.77;;;;;;;1.06;56.20;99365.56;5019267;28;20041;-79
2023/12/22 02:23:00;;;;;;;19.52;1.60;;;;;;;1.27;54.82;99353.88;5016365;28;20032;-79
2023/12/22 02:25:26;;;;;;;14.63;2.13;;;;;;;0.88;55.37;99361.69;5021067;28;20049;-79
2023/12/22 02:28:01;;;;;;;3.42;0.75;;;;;;;1.13;53.60;99341.38;5017807;28;20044;-79
2023/12/22 02:30:54;;;;;;;11.25;1.20;;;;;;;1.23;53.09;99353.09;5002249;28;20198;-80
2023/12/22 02:33:22;;;;;;;15.45;1.42;;;;;;;1.27;53.73;99328.16;5001225;28;20457;-79
2023/12/22 02:35:50;;;;;;;13.65;0.65;;;;;;;1.26;52.61;99349.59;5000769;28;20516;-79
2023/12/22 02:38:20;;;;;;;13.02;1.52;;;;;;;0.92;54.30;99371.03;4998995;28;20117;-78
2023/12/22 02:40:45;;;;;;;10.80;1.02;;;;;;;0.84;55.57;99360.13;5028631;28;20046;-78
2023/12/22 02:43:11;;;;;;;11.27;0.73;;;;;;;0.95;55.55;99355.56;5017026;28;20041;-79
2023/12/22 02:45:37;;;;;;;8.27;0.55;;;;;;;0.95;55.67;99363.28;5020081;28;20116;-79
2023/12/22 02:48:03;;;;;;;6.72;0.73;;;;;;;0.59;56.92;99360.69;5020715;28;20041;-79
2023/12/22 02:50:28;;;;;;;8.63;0.50;;;;;;;0.52;56.62;99366.00;5017902;28;20200;-79
2023/12/22 02:52:54;;;;;;;14.40;1.48;;;;;;;0.48;57.24;99358.34;4996514;28;20044;-79
2023/12/22 02:55:19;;;;;;;4.85;0.20;;;;;;;0.44;57.85;99350.75;5017703;28;20056;-79
2023/12/22 02:57:45;;;;;;;11.80;1.75;;;;;;;0.49;57.40;99362.59;5014702;28;20037;-80
2023/12/22 03:00:13;;;;;;;13.05;1.20;;;;;;;0.39;55.87;99352.56;5015928;28;20047;-80
2023/12/22 03:02:39;;;;;;;6.75;0.47;;;;;;;0.31;54.48;99359.59;5002674;28;20052;-79
2023/12/22 03:05:05;;;;;;;8.70;0.43;;;;;;;0.46;53.52;99369.56;5013230;28;20034;-80
2023/12/22 03:07:30;;;;;;;7.55;0.47;;;;;;;0.56;53.56;99365.03;5016162;28;20056;-79
2023/12/22 03:09:56;;;;;;;5.35;0.70;;;;;;;0.72;53.89;99370.66;5002527;28;20045;-79
2023/12/22 03:12:22;;;;;;;3.83;0.57;;;;;;;0.56;54.81;99353.03;5027058;28;20040;-80
2023/12/22 03:14:48;;;;;;;4.68;0.77;;;;;;;0.82;54.46;99347.28;5003259;28;20052;-80
2023/12/22 03:17:14;;;;;;;6.72;0.80;;;;;;;1.01;54.09;99326.25;4998889;28;20061;-81
2023/12/22 03:19:42;;;;;;;12.77;1.05;;;;;;;1.20;54.35;99342.06;5002009;28;20045;-79
2023/12/22 03:22:09;;;;;;;9.77;2.35;;;;;;;1.44;53.67;99336.31;5005207;28;20033;-80
2023/12/22 03:24:35;;;;;;;9.65;1.30;;;;;;;1.48;52.38;99330.19;5011821;28;20298;-79
2023/12/22 03:27:00;;;;;;;8.68;1.77;;;;;;;1.31;51.44;99330.59;5017266;28;20447;-79
2023/12/22 03:29:26;;;;;;;17.65;1.25;;;;;;;1.40;51.30;99350.13;5015673;28;20570;-79
2023/12/22 03:31:51;;;;;;;9.68;1.52;;;;;;;1.43;53.42;99368.06;5017948;28;20037;-79
2023/12/22 03:34:16;;;;;;;13.30;0.68;;;;;;;0.68;57.14;99388.75;5014592;28;20034;-79
2023/12/22 03:36:42;;;;;;;9.20;0.40;;;;;;;0.45;57.87;99373.00;5000996;28;20053;-79
2023/12/22 03:39:07;;;;;;;6.20;0.80;;;;;;;0.49;58.18;99384.91;5012118;28;20048;-80
2023/12/22 03:41:34;;;;;;;6.65;0.68;;;;;;;0.46;58.19;99365.25;4999555;28;20473;-80
2023/12/22 03:43:59;;;;;;;7.90;0.93;;;;;;;0.09;59.53;99380.63;5015429;28;20106;-79
2023/12/22 03:46:25;;;;;;;19.75;0.93;;;;;;;0.08;60.39;99389.22;5017577;28;20037;-79
2023/12/22 03:48:51;;;;;;;8.30;1.23;;;;;;;0.22;60.40;99397.47;5014114;28;20570;-80
2023/12/22 03:51:17;;;;;;;15.43;0.95;;;;;;;-0.25;61.09;99391.56;4999475;28;20033;-80
2023/12/22 03:53:42;;;;;;;16.00;1.67;;;;;;;0.22;59.86;99384.63;5002449;28;20045;-78
2023/12/22 03:56:08;;;;;;;11.13;0.98;;;;;;;0.24;58.76;99397.44;5006186;28;20517;-79
2023/12/22 03:58:35;;;;;;;9.02;1.10;;;;;;;0.39;57.30;99397.13;5004980;28;20297;-79
2023/12/22 04:01:00;;;;;;;21.23;1.55;;;;;;;0.54;56.27;99387.38;5023457;28;20116;-78
2023/12/22 04:03:26;;;;;;;11.48;1.00;;;;;;;0.71;55.58;99380.13;5020880;28;20113;-79
2023/12/22 04:05:52;;;;;;;12.10;1.13;;;;;;;1.02;53.44;99395.69;5002118;28;20045;-78
2023/12/22 04:08:17;;;;;;;16.02;1.65;;;;;;;0.96;52.71;99371.81;5017592;28;20045;-79
2023/12/22 04:10:44;;;;;;;11.73;1.17;;;;;;;1.35;52.46;99398.31;5008502;28;20448;-80
2023/12/22 04:13:10;;;;;;;14.88;1.13;;;;;;;0.95;53.09;99389.00;5022567;28;20331;-79
2023/12/22 04:15:35;;;;;;;14.13;1.55;;;;;;;1.17;53.58;99370.44;5006026;28;20041;-79
2023/12/22 04:18:01;;;;;;;13.10;1.23;;;;;;;1.62;52.95;99385.63;5015456;28;20041;-80
2023/12/22 04:20:27;;;;;;;11.52;1.48;;;;;;;1.09;55.43;99428.09;5011723;28;20030;-79
2023/12/22 04:22:52;;;;;;;15.27;0.98;;;;;;;0.67;56.26;99399.91;5014703;28;20278;-78
2023/12/22 04:25:18;;;;;;;3.65;0.77;;;;;;;0.50;56.06;99407.16;5002028;28;20079;-78
2023/12/22 04:27:43;;;;;;;4.90;0.50;;;;;;;0.39;56.14;99398.81;5019923;28;20032;-79
2023/12/22 04:30:09;;;;;;;6.35;0.30;;;;;;;0.34;56.37;99403.22;5019977;28;20030;-79
2023/12/22 04:32:35;;;;;;;8.80;1.83;;;;;;;0.45;56.13;99401.28;5018687;28;20028;-79
2023/12/22 04:35:00;;;;;;;6.10;0.60;;;;;;;0.60;56.18;99402.66;5014381;28;20425;-79
2023/12/22 04:37:26;;;;;;;9.18;1.15;;;;;;;0.47;56.22;99412.38;5018236;28;20060;-79
2023/12/22 04:39:51;;;;;;;1.38;0.20;;;;;;;0.34;54.77;99411.78;5016145;28;20060;-79
2023/12/22 04:42:18;;;;;;;3.45;0.90;;;;;;;0.64;54.75;99402.56;5017638;28;20104;-79
2023/12/22 04:44:43;;;;;;;9.77;0.68;;;;;;;0.72;54.10;99406.69;5010309;28;20498;-79
2023/12/22 04:47:09;;;;;;;10.50;0.82;;;;;;;0.56;54.42;99394.16;5014139;28;20436;-79
2023/12/22 04:49:34;;;;;;;10.45;1.05;;;;;;;0.49;55.23;99408.03;5010841;28;20289;-80
2023/12/22 04:52:00;;;;;;;12.13;0.82;;;;;;;0.72;55.25;99404.09;5014605;28;20452;-79
2023/12/22 04:54:26;;;;;;;9.73;2.30;;;;;;;0.76;55.44;99418.59;5017378;28;20135;-79
2023/12/22 04:56:51;;;;;;;11.70;1.50;;;;;;;0.80;55.58;99425.38;5016225;28;20037;-79
2023/12/22 04:59:20;;;;;;;15.15;1.40;;;;;;;0.93;55.21;99455.06;5018753;28;20054;-78
2023/12/22 05:01:45;;;;;;;9.50;0.70;;;;;;;0.58;54.17;99446.41;4998037;28;20619;-79
2023/12/22 05:04:11;;;;;;;2.40;0.35;;;;;;;0.49;54.23;99447.44;5016957;28;20041;-78
2023/12/22 05:06:37;;;;;;;4.18;1.05;;;;;;;0.55;53.76;99435.34;5017526;28;20366;-78
2023/12/22 05:09:03;;;;;;;1.45;1.08;;;;;;;0.44;55.17;99448.44;5011717;28;20107;-79
2023/12/22 05:11:29;;;;;;;9.35;0.57;;;;;;;0.60;55.07;99449.78;5015030;28;20028;-78
2023/12/22 05:13:54;;;;;;;8.82;1.00;;;;;;;0.35;56.25;99440.91;5016449;28;20042;-79
2023/12/22 05:16:23;;;;;;;6.95;0.30;;;;;;;0.57;55.87;99449.00;5017411;28;20033;-79
2023/12/22 05:18:49;;;;;;;6.68;1.05;;;;;;;0.92;55.05;99455.09;5015161;28;20710;-78
2023/12/22 05:21:14;;;;;;;14.52;0.80;;;;;;;1.15;54.42;99451.97;5018075;28;20033;-79
2023/12/22 05:23:40;;;;;;;19.25;2.53;;;;;;;0.87;55.45;99442.34;5016579;28;20534;-79
2023/12/22 05:26:05;;;;;;;11.88;1.15;;;;;;;1.13;54.43;99454.59;5014106;28;20485;-79
2023/12/22 05:28:32;;;;;;;21.25;1.33;;;;;;;1.34;54.53;99499.56;5017934;28;21003;-79
2023/12/22 05:30:57;;;;;;;4.55;0.43;;;;;;;-0.21;58.84;99490.78;5032138;28;20535;-79
2023/12/22 05:33:23;;;;;;;3.00;0.30;;;;;;;-0.82;61.18;99466.13;4997440;28;20045;-78
2023/12/22 05:35:48;;;;;;;5.68;0.30;;;;;;;-0.76;60.87;99477.13;5016553;28;20038;-78
2023/12/22 05:38:14;;;;;;;7.25;0.70;;;;;;;-0.85;61.56;99496.97;5013474;28;20129;-78
2023/12/22 05:40:39;;;;;;;13.95;1.13;;;;;;;-0.66;61.36;99482.13;5015590;28;20379;-79
2023/12/22 05:43:05;;;;;;;5.07;0.60;;;;;;;-0.32;60.64;99463.59;4997766;28;20044;-78
2023/12/22 05:45:31;;;;;;;8.88;1.85;;;;;;;-0.69;61.69;99472.75;5000387;28;20040;-78
2023/12/22 05:47:56;;;;;;;11.75;0.98;;;;;;;-0.14;60.77;99482.09;5000729;28;20045;-78
2023/12/22 05:50:22;;;;;;;18.73;1.67;;;;;;;0.28;59.63;99465.91;5016007;28;20136;-78
2023/12/22 05:52:47;;;;;;;7.47;1.00;;;;;;;0.42;59.22;99496.47;5017202;28;20057;-78
2023/12/22 05:55:13;;;;;;;5.13;0.68;;;;;;;-0.12;60.71;99525.72;5013319;28;20106;-78
2023/12/22 05:57:38;;;;;;;10.27;1.38;;;;;;;-0.44;62.23;99523.69;5010151;28;20048;-78
2023/12/22 06:00:09;;;;;;;12.02;0.82;;;;;;;-0.61;62.79;99501.72;5012289;28;20128;-78
2023/12/22 06:02:35;;;;;;;13.18;1.23;;;;;;;-0.95;63.62;99510.78;5013125;28;20041;-79
2023/12/22 06:05:01;;;;;;;15.05;1.48;;;;;;;-0.72;63.13;99518.16;5010375;28;20146;-79
2023/12/22 06:07:26;;;;;;;15.85;1.20;;;;;;;-0.60;63.26;99523.94;4998708;28;20033;-80
2023/12/22 06:09:52;;;;;;;12.15;0.77;;;;;;;-0.43;62.90;99520.25;5014350;28;20033;-79
2023/12/22 06:12:17;;;;;;;16.48;1.63;;;;;;;-0.45;63.58;99515.16;5015099;28;20052;-79
2023/12/22 06:14:43;;;;;;;9.45;1.67;;;;;;;-0.05;62.57;99529.03;4998676;28;20072;-81
2023/12/22 06:17:08;;;;;;;20.75;2.42;;;;;;;0.25;61.95;99546.44;5001319;28;20118;-80
2023/12/22 06:19:35;;;;;;;20.17;1.55;;;;;;;0.18;61.82;99538.88;4996721;28;20045;-80
2023/12/22 06:22:01;;;;;;;26.00;1.85;;;;;;;0.19;61.79;99546.59;5011808;28;20401;-79
2023/12/22 06:24:27;;;;;;;16.50;2.17;;;;;;;0.33;61.49;99538.59;5016033;28;20045;-79
2023/12/22 06:26:53;;;;;;;13.20;1.60;;;;;;;0.82;59.97;99539.34;5016901;28;20034;-79
2023/12/22 06:29:18;;;;;;;29.35;2.30;;;;;;;0.63;60.44;99536.31;5030768;28;20228;-80
2023/12/22 06:31:44;;;;;;;23.85;2.13;;;;;;;0.59;59.92;99520.09;5017103;28;20052;-80
2023/12/22 06:34:09;;;;;;;25.08;2.15;;;;;;;0.58;60.11;99523.53;5017494;28;20041;-81
2023/12/22 06:36:35;;;;;;;13.82;2.33;;;;;;;0.65;59.31;99514.81;5015522;28;20099;-81
2023/12/22 06:39:00;;;;;;;10.85;1.00;;;;;;;1.04;58.65;99532.88;5013777;28;20038;-81
2023/12/22 06:41:29;;;;;;;23.00;1.90;;;;;;;0.92;59.49;99542.56;5003742;28;20029;-81
2023/12/22 06:43:56;;;;;;;17.83;2.08;;;;;;;1.04;58.95;99545.72;4997538;28;20057;-80
2023/12/22 06:46:26;;;;;;;22.40;1.63;;;;;;;0.95;59.72;99557.94;5032323;28;20317;-80
2023/12/22 06:48:53;;;;;;;25.75;3.55;;;;;;;0.89;60.08;99538.34;5031978;28;20046;-81
2023/12/22 06:51:28;;;;;;;16.00;1.63;;;;;;;1.25;59.10;99551.28;5024592;28;20140;-80
2023/12/22 06:53:57;;;;;;;29.45;2.20;;;;;;;1.16;59.56;99546.34;5001936;28;20217;-80
2023/12/22 06:56:28;;;;;;;31.23;2.65;;;;;;;1.31;59.03;99556.28;5024026;28;20364;-78
2023/12/22 06:58:57;;;;;;;8.18;1.58;;;;;;;1.36;58.06;99558.75;5016320;28;20763;-81
2023/12/22 07:01:29;;;;;;;16.67;2.17;;;;;;;1.27;57.30;99560.66;5003198;28;20217;-78
2023/12/22 07:03:55;;;;;;;18.58;2.05;;;;;;;1.06;58.06;99554.25;5002342;28;20493;-81
2023/12/22 07:06:23;;;;;;;15.98;2.58;;;;;;;1.27;57.53;99565.81;5017604;28;20106;-79
2023/12/22 07:09:13;;;;;;;17.20;1.80;;;;;;;1.04;57.43;99568.88;5029625;28;20104;-78
2023/12/22 07:11:44;;;;;;;17.23;3.25;;;;;;;1.26;56.89;99558.09;4997068;28;20033;-80
2023/12/22 07:14:09;;;;;;;10.25;2.53;;;;;;;1.42;55.88;99569.78;4995024;28;20125;-78
2023/12/22 07:16:36;;;;;;;11.65;1.48;;;;;;;1.59;55.50;99577.13;5001400;28;20073;-80
2023/12/22 07:19:01;;;;;;;15.85;1.75;;;;;;;1.15;55.49;99560.06;5018363;28;20037;-77
2023/12/22 07:21:27;;;;;;;16.95;2.20;;;;;;;1.80;54.44;99573.19;5021828;28;20044;-80
2023/12/22 07:23:53;;;;;;;10.63;1.35;;;;;;;1.71;54.11;99591.44;4997497;28;20038;-78
2023/12/22 07:26:21;;;;;;;18.73;1.67;;;;;;;1.42;53.76;99585.25;5017375;28;20053;-78
2023/12/22 07:28:47;;;;;;;27.75;2.58;;;;;;;1.98;52.62;99604.56;5002591;28;20122;-78
2023/12/22 07:31:14;;;;;;;13.05;1.55;;;;;;;1.87;50.68;99602.22;5019611;28;20025;-80
2023/12/22 07:33:43;;;;;;;15.93;3.17;;;;;;;2.24;50.65;99607.31;5013276;28;20200;-78
2023/12/22 07:36:08;;;;;;;15.77;1.33;;;;;;;1.68;53.54;99612.09;5013599;28;20240;-78
2023/12/22 07:38:34;;;;;;;15.43;2.38;;;;;;;1.49;54.88;99604.81;5002625;28;20508;-79
2023/12/22 07:40:59;;;;;;;15.68;1.45;;;;;;;1.26;55.00;99597.59;5019136;28;20038;-80
2023/12/22 07:43:26;;;;;;;15.85;1.77;;;;;;;1.32;55.35;99599.16;5012701;28;20376;-78
2023/12/22 07:45:51;;;;;;;20.20;1.73;;;;;;;1.24;56.35;99629.38;5002784;28;20473;-81
2023/12/22 07:48:19;;;;;;;14.80;1.95;;;;;;;0.73;57.96;99614.97;5013142;28;20587;-80
2023/12/22 07:50:45;;;;;;;11.35;1.42;;;;;;;0.90;57.61;99614.63;5016608;28;20021;-77
2023/12/22 07:53:11;;;;;;;19.73;1.85;;;;;;;1.02;57.32;99613.56;5013934;28;20029;-77
2023/12/22 07:55:38;;;;;;;15.15;1.55;;;;;;;1.15;56.82;99601.25;4994412;28;20037;-78
2023/12/22 07:58:09;;;;;;;13.65;2.47;;;;;;;1.37;56.07;99610.19;4993997;28;20562;-78
2023/12/22 08:00:36;;;;;;;14.00;1.83;;;;;;;1.35;55.79;99609.41;5008300;28;20037;-78
2023/12/22 08:03:02;;;;;;;19.98;1.85;;;;;;;1.37;55.55;99601.63;5018710;28;20121;-78
2023/12/22 08:05:29;;;;;;;18.02;3.28;;;;;;;1.57;53.78;99611.50;5016564;28;20104;-78
2023/12/22 08:07:55;;;;;;;10.07;1.23;;;;;;;1.76;52.94;99620.50;5013609;28;20196;-78
2023/12/22 08:10:21;;;;;;;13.40;2.60;;;;;;;1.85;52.04;99629.75;5018580;28;20512;-78
2023/12/22 08:12:47;;;;;;;30.77;3.05;;;;;;;2.02;51.34;99635.38;5012991;28;20033;-80
2023/12/22 08:15:14;;;;;;;9.68;1.55;;;;;;;1.89;51.68;99644.28;5001574;28;20068;-78
2023/12/22 08:17:50;;;;;;;21.20;1.75;;;;;;;1.52;54.79;99671.69;5018943;28;20040;-79
2023/12/22 08:20:19;;;;;;;9.68;0.40;;;;;;;1.16;54.52;99651.84;5019876;28;20527;-78
2023/12/22 08:22:50;;;;;;;11.85;0.50;;;;;;;1.14;55.84;99661.34;4999594;28;20536;-80
2023/12/22 08:25:17;;;;;;;13.38;1.80;;;;;;;1.05;55.64;99665.78;4998393;28;20446;-78
2023/12/22 08:27:42;;;;;;;7.95;1.08;;;;;;;0.82;55.81;99655.94;5021812;28;20032;-80
2023/12/22 08:30:11;;;;;;;14.20;1.23;;;;;;;1.32;53.93;99655.78;5012536;28;20250;-80
2023/12/22 08:32:38;;;;;;;9.80;0.60;;;;;;;1.04;54.53;99661.53;4998472;28;20493;-80
2023/12/22 08:35:04;;;;;;;9.52;1.55;;;;;;;1.01;54.13;99659.00;4996550;28;20048;-80
2023/12/22 08:37:30;;;;;;;12.35;0.60;;;;;;;1.21;54.58;99670.63;5018050;28;20125;-78
2023/12/22 08:39:56;;;;;;;2.35;0.40;;;;;;;1.45;53.93;99669.28;4994496;28;20129;-81
2023/12/22 08:42:24;;;;;;;10.85;0.85;;;;;;;1.32;54.12;99666.09;5014384;28;20093;-81
2023/12/22 08:44:53;;;;;;;7.72;1.52;;;;;;;1.92;53.47;99670.78;4997255;28;20519;-80
2023/12/22 08:47:19;;;;;;;19.48;1.27;;;;;;;1.60;54.74;99691.31;5012294;28;20036;-80
2023/12/22 08:49:44;;;;;;;5.88;0.57;;;;;;;1.79;54.55;99697.72;4998928;28;20112;-80
2023/12/22 08:52:13;;;;;;;10.77;0.95;;;;;;;0.92;56.68;99672.03;5018506;28;20783;-80
2023/12/22 08:54:39;;;;;;;10.55;1.65;;;;;;;0.53;57.83;99679.63;5014730;28;20517;-80
2023/12/22 08:57:04;;;;;;;7.80;1.58;;;;;;;0.83;57.31;99667.91;5019435;28;20068;-80
2023/12/22 08:59:30;;;;;;;13.07;1.08;;;;;;;0.44;58.57;99690.06;5018787;28;20962;-79
2023/12/22 09:01:55;;;;;;;8.65;0.43;;;;;;;0.20;60.01;99683.63;5003000;28;20160;-80
2023/12/22 09:04:22;;;;;;;8.15;0.95;;;;;;;0.29;60.11;99675.75;5017639;28;20052;-79
2023/12/22 09:06:48;;;;;;;8.32;1.00;;;;;;;0.42;59.90;99672.09;5011856;28;20491;-80
2023/12/22 09:09:14;;;;;;;16.17;1.35;;;;;;;0.62;59.85;99670.91;4990692;28;20049;-80
2023/12/22 09:11:39;;;;;;;12.50;1.38;;;;;;;0.63;60.34;99686.28;5015862;28;20463;-80
2023/12/22 09:14:09;;;;;;;15.50;0.77;;;;;;;0.58;61.21;99693.25;4996400;28;20069;-79
2023/12/22 09:16:35;;;;;;;4.43;0.73;;;;;;;0.82;60.83;99691.97;5011678;28;20061;-80
2023/12/22 09:19:01;;;;;;;16.77;1.17;;;;;;;1.01;60.81;99691.59;5005687;28;20141;-79
2023/12/22 09:21:27;;;;;;;9.18;1.10;;;;;;;1.08;60.61;99696.63;5017184;28;20467;-81
2023/12/22 09:23:52;;;;;;;13.15;1.77;;;;;;;1.01;61.21;99696.75;5015910;28;20505;-78
2023/12/22 09:26:18;;;;;;;8.20;1.15;;;;;;;1.19;60.59;99696.38;4998352;28;20048;-78
2023/12/22 09:28:45;;;;;;;8.18;1.20;;;;;;;1.60;60.02;99693.88;4997056;28;20044;-81
2023/12/22 09:31:12;;;;;;;15.40;1.05;;;;;;;1.06;61.17;99689.78;5014222;28;20041;-82
2023/12/22 09:33:42;;;;;;;18.38;2.92;;;;;;;1.28;61.15;99679.91;5010278;28;20037;-80
2023/12/22 09:36:08;;;;;;;13.73;1.15;;;;;;;1.70;60.15;99680.75;4990543;28;20041;-79
2023/12/22 09:38:34;;;;;;;11.77;1.58;;;;;;;1.60;60.50;99670.69;4997153;28;20315;-80
2023/12/22 09:41:01;;;;;;;12.27;1.77;;;;;;;1.36;61.47;99682.34;5001085;28;20021;-79
2023/12/22 09:43:26;;;;;;;9.68;0.60;;;;;;;1.46;60.93;99695.03;4993428;28;20128;-79
2023/12/22 09:45:52;;;;;;;13.90;0.80;;;;;;;1.16;61.94;99711.91;4996039;28;20050;-80
2023/12/22 09:48:26;;;;;;;9.40;0.77;;;;;;;1.28;61.29;99700.50;5008709;28;20049;-78
2023/12/22 09:50:52;;;;;;;8.30;0.90;;;;;;;1.04;61.56;99701.84;4992256;28;20072;-79
2023/12/22 09:53:20;;;;;;;9.02;0.88;;;;;;;1.44;60.60;99704.50;5012304;28;20046;-80
2023/12/22 09:55:46;;;;;;;10.88;0.85;;;;;;;1.63;60.63;99696.38;5017705;28;20037;-80
2023/12/22 09:58:18;;;;;;;12.13;1.40;;;;;;;1.29;61.50;99708.19;5018646;28;20246;-80
2023/12/22 10:00:45;;;;;;;13.57;1.05;;;;;;;1.73;60.72;99700.47;5002091;28;20033;-79
2023/12/22 10:03:12;;;;;;;13.98;1.05;;;;;;;1.90;60.07;99695.75;5003749;28;20474;-80
2023/12/22 10:05:41;;;;;;;8.50;0.95;;;;;;;1.76;60.68;99690.06;5013351;28;20021;-80
2023/12/22 10:08:10;;;;;;;8.13;1.20;;;;;;;2.04;59.69;99674.84;4996319;28;20029;-80
2023/12/22 10:10:39;;;;;;;8.85;1.50;;;;;;;1.87;59.52;99680.38;5014993;28;20061;-80
2023/12/22 10:13:08;;;;;;;10.73;0.85;;;;;;;2.42;58.25;99682.50;5009727;28;20477;-81
2023/12/22 10:15:36;;;;;;;17.60;1.30;;;;;;;1.98;59.01;99676.72;5025486;28;20026;-80
2023/12/22 10:18:02;;;;;;;12.10;1.00;;;;;;;2.20;58.71;99667.56;5018813;28;20547;-79
2023/12/22 10:20:27;;;;;;;12.48;1.48;;;;;;;2.00;59.54;99680.06;5011471;28;20042;-80
2023/12/22 10:22:52;;;;;;;16.42;1.33;;;;;;;1.70;59.88;99672.16;5001171;28;20029;-80
2023/12/22 10:25:29;;;;;;;7.72;1.08;;;;;;;1.88;59.81;99666.59;5007748;28;20045;-80
2023/12/22 10:27:55;;;;;;;19.33;1.25;;;;;;;2.06;59.37;99661.88;4994965;28;20099;-79
2023/12/22 10:30:24;;;;;;;13.18;1.20;;;;;;;1.93;59.68;99651.88;5008651;28;20034;-79
2023/12/22 10:32:53;;;;;;;14.15;1.10;;;;;;;2.09;59.12;99654.94;4999297;28;20029;-81
2023/12/22 10:35:23;;;;;;;8.75;1.58;;;;;;;2.01;59.06;99654.28;5004004;28;20041;-80
2023/12/22 10:37:53;;;;;;;7.10;0.50;;;;;;;2.39;57.82;99643.91;5009845;28;20124;-78
2023/12/22 10:40:19;;;;;;;18.65;1.33;;;;;;;2.58;57.09;99652.84;4993011;28;20073;-77
2023/12/22 10:42:45;;;;;;;5.00;0.47;;;;;;;2.16;57.87;99665.94;5009751;28;20094;-81
2023/12/22 10:45:13;;;;;;;10.80;1.40;;;;;;;2.09;57.62;99667.00;4996662;28;20045;-81
2023/12/22 10:47:42;;;;;;;6.78;0.73;;;;;;;2.26;57.54;99666.56;5006360;28;20474;-82
2023/12/22 10:50:08;;;;;;;9.30;0.85;;;;;;;2.05;57.10;99655.06;4997959;28;20030;-82
2023/12/22 10:52:34;;;;;;;6.60;0.80;;;;;;;2.72;56.19;99655.91;4998179;28;20575;-81
2023/12/22 10:55:00;;;;;;;4.32;0.60;;;;;;;2.46;56.44;99666.91;5008304;28;20041;-81
2023/12/22 10:57:27;;;;;;;8.52;0.63;;;;;;;2.62;56.26;99658.75;5008768;28;20268;-79
2023/12/22 10:59:52;;;;;;;2.55;0.55;;;;;;;2.75;55.44;99662.72;4992151;28;20033;-82
2023/12/22 11:02:19;;;;;;;7.30;0.63;;;;;;;2.51;55.88;99651.31;4998039;28;20149;-81
2023/12/22 11:04:56;;;;;;;13.02;1.10;;;;;;;2.68;55.76;99651.72;5017923;28;20049;-79
2023/12/22 11:07:27;;;;;;;9.93;1.20;;;;;;;2.85;55.10;99640.94;5012256;28;20033;-81
2023/12/22 11:09:56;;;;;;;11.27;0.60;;;;;;;2.91;55.22;99656.25;5018308;28;20041;-78
2023/12/22 11:12:24;;;;;;;10.77;0.98;;;;;;;2.87;55.12;99633.16;5030498;28;20033;-79
2023/12/22 11:14:52;;;;;;;12.18;1.05;;;;;;;3.18;54.12;99621.06;5018251;28;20468;-81
2023/12/22 11:17:21;;;;;;;3.47;0.30;;;;;;;2.90;54.38;99617.59;4998768;28;20034;-79
2023/12/22 11:20:02;;;;;;;7.78;0.75;;;;;;;2.69;54.90;99609.56;5017044;28;20253;-80
2023/12/22 11:22:28;;;;;;;8.32;0.52;;;;;;;2.75;54.31;99608.53;5001779;28;20034;-81
2023/12/22 11:24:56;;;;;;;4.43;0.63;;;;;;;3.00;54.59;99595.75;4996505;28;20045;-79
2023/12/22 11:27:25;;;;;;;7.78;1.52;;;;;;;3.34;53.56;99607.72;5030251;28;20385;-78
2023/12/22 11:29:51;;;;;;;6.57;0.80;;;;;;;2.75;55.27;99619.69;4995902;28;20595;-82
2023/12/22 11:32:19;;;;;;;7.53;1.00;;;;;;;2.45;56.06;99612.81;5017947;28;20061;-81
2023/12/22 11:34:47;;;;;;;13.80;1.73;;;;;;;3.02;55.05;99627.53;4999194;28;20046;-79